sensor_id;sensor_type;location;lat;lon;timestamp;temperature;humidity
4964;DHT22;2497;47.410;9.740;2022-11-03T00:01:05;8.20;99.90
4964;DHT22;2497;47.410;9.740;2022-11-03T00:03:33;8.20;99.90
4964;DHT22;2497;47.410;9.740;2022-11-03T00:06:01;8.10;99.90
4964;DHT22;2497;47.410;9.740;2022-11-03T00:08:31;8.00;99.90
4964;DHT22;2497;47.410;9.740;2022-11-03T00:11:07;8.00;99.90
4964;DHT22;2497;47.410;9.740;2022-11-03T00:13:35;8.00;99.90
4964;DHT22;2497;47.410;9.740;2022-11-03T00:16:06;8.00;99.90
4964;DHT22;2497;47.410;9.740;2022-11-03T00:18:33;8.00;99.90
4964;DHT22;2497;47.410;9.740;2022-11-03T00:21:03;7.90;99.90
4964;DHT22;2497;47.410;9.740;2022-11-03T00:23:33;7.90;99.90
4964;DHT22;2497;47.410;9.740;2022-11-03T00:26:06;7.90;99.90
4964;DHT22;2497;47.410;9.740;2022-11-03T00:28:33;7.90;99.90
4964;DHT22;2497;47.410;9.740;2022-11-03T00:31:04;7.80;99.90
4964;DHT22;2497;47.410;9.740;2022-11-03T00:33:34;7.80;99.90
4964;DHT22;2497;47.410;9.740;2022-11-03T00:36:03;7.70;99.90
4964;DHT22;2497;47.410;9.740;2022-11-03T00:38:31;7.80;99.90
4964;DHT22;2497;47.410;9.740;2022-11-03T00:40:59;7.70;99.90
4964;DHT22;2497;47.410;9.740;2022-11-03T00:43:32;7.60;99.90
4964;DHT22;2497;47.410;9.740;2022-11-03T00:46:00;7.60;99.90
4964;DHT22;2497;47.410;9.740;2022-11-03T00:48:28;7.70;99.90
4964;DHT22;2497;47.410;9.740;2022-11-03T00:51:01;7.70;99.90
4964;DHT22;2497;47.410;9.740;2022-11-03T00:53:29;7.70;99.90
4964;DHT22;2497;47.410;9.740;2022-11-03T00:55:57;7.60;99.90
4964;DHT22;2497;47.410;9.740;2022-11-03T00:58:25;7.60;99.90
4964;DHT22;2497;47.410;9.740;2022-11-03T01:00:58;7.50;99.90
4964;DHT22;2497;47.410;9.740;2022-11-03T01:03:26;7.50;99.90
4964;DHT22;2497;47.410;9.740;2022-11-03T01:05:54;7.50;99.90
4964;DHT22;2497;47.410;9.740;2022-11-03T01:08:40;7.40;99.90
4964;DHT22;2497;47.410;9.740;2022-11-03T01:11:09;7.40;99.90
4964;DHT22;2497;47.410;9.740;2022-11-03T01:13:50;7.50;99.90
4964;DHT22;2497;47.410;9.740;2022-11-03T01:16:18;7.50;99.90
4964;DHT22;2497;47.410;9.740;2022-11-03T01:18:45;7.40;99.90
4964;DHT22;2497;47.410;9.740;2022-11-03T01:21:13;7.50;99.90
4964;DHT22;2497;47.410;9.740;2022-11-03T01:23:42;7.50;99.90
4964;DHT22;2497;47.410;9.740;2022-11-03T01:26:11;7.40;99.90
4964;DHT22;2497;47.410;9.740;2022-11-03T01:28:40;7.40;99.90
4964;DHT22;2497;47.410;9.740;2022-11-03T01:31:10;7.30;99.90
4964;DHT22;2497;47.410;9.740;2022-11-03T01:33:38;7.30;99.90
4964;DHT22;2497;47.410;9.740;2022-11-03T01:36:07;7.30;99.90
4964;DHT22;2497;47.410;9.740;2022-11-03T01:38:35;7.30;99.90
4964;DHT22;2497;47.410;9.740;2022-11-03T01:41:07;7.20;99.90
4964;DHT22;2497;47.410;9.740;2022-11-03T01:43:37;7.20;99.90
4964;DHT22;2497;47.410;9.740;2022-11-03T01:46:10;7.20;99.90
4964;DHT22;2497;47.410;9.740;2022-11-03T01:48:45;7.20;99.90
4964;DHT22;2497;47.410;9.740;2022-11-03T01:51:15;7.20;99.90
4964;DHT22;2497;47.410;9.740;2022-11-03T01:53:46;7.20;99.90
4964;DHT22;2497;47.410;9.740;2022-11-03T01:56:16;7.30;99.90
4964;DHT22;2497;47.410;9.740;2022-11-03T01:58:46;7.20;99.90
4964;DHT22;2497;47.410;9.740;2022-11-03T02:01:16;7.20;99.90
4964;DHT22;2497;47.410;9.740;2022-11-03T02:03:47;7.20;99.90
4964;DHT22;2497;47.410;9.740;2022-11-03T02:06:16;7.20;99.90
4964;DHT22;2497;47.410;9.740;2022-11-03T02:08:47;7.20;99.90
4964;DHT22;2497;47.410;9.740;2022-11-03T02:11:17;7.10;99.90
4964;DHT22;2497;47.410;9.740;2022-11-03T02:14:01;7.20;99.90
4964;DHT22;2497;47.410;9.740;2022-11-03T02:16:31;7.20;99.90
4964;DHT22;2497;47.410;9.740;2022-11-03T02:19:00;7.30;99.90
4964;DHT22;2497;47.410;9.740;2022-11-03T02:21:30;7.20;99.90
4964;DHT22;2497;47.410;9.740;2022-11-03T02:24:04;7.20;99.90
4964;DHT22;2497;47.410;9.740;2022-11-03T02:26:40;7.10;99.90
4964;DHT22;2497;47.410;9.740;2022-11-03T02:29:08;7.10;99.90
4964;DHT22;2497;47.410;9.740;2022-11-03T02:31:40;7.10;99.90
4964;DHT22;2497;47.410;9.740;2022-11-03T02:34:13;7.00;99.90
4964;DHT22;2497;47.410;9.740;2022-11-03T02:36:45;7.00;99.90
4964;DHT22;2497;47.410;9.740;2022-11-03T02:39:16;7.00;99.90
4964;DHT22;2497;47.410;9.740;2022-11-03T02:41:48;7.00;99.90
4964;DHT22;2497;47.410;9.740;2022-11-03T02:44:18;7.00;99.90
4964;DHT22;2497;47.410;9.740;2022-11-03T02:46:49;6.90;99.90
4964;DHT22;2497;47.410;9.740;2022-11-03T02:49:18;6.90;99.90
4964;DHT22;2497;47.410;9.740;2022-11-03T02:51:46;6.90;99.90
4964;DHT22;2497;47.410;9.740;2022-11-03T02:54:20;6.90;99.90
4964;DHT22;2497;47.410;9.740;2022-11-03T02:56:53;6.90;99.90
4964;DHT22;2497;47.410;9.740;2022-11-03T02:59:25;6.80;99.90
4964;DHT22;2497;47.410;9.740;2022-11-03T03:01:58;6.80;99.90
4964;DHT22;2497;47.410;9.740;2022-11-03T03:04:28;6.80;99.90
4964;DHT22;2497;47.410;9.740;2022-11-03T03:07:00;6.70;99.90
4964;DHT22;2497;47.410;9.740;2022-11-03T03:09:33;6.80;99.90
4964;DHT22;2497;47.410;9.740;2022-11-03T03:12:04;6.80;99.90
4964;DHT22;2497;47.410;9.740;2022-11-03T03:14:36;6.80;99.90
4964;DHT22;2497;47.410;9.740;2022-11-03T03:17:07;6.80;99.90
4964;DHT22;2497;47.410;9.740;2022-11-03T03:19:43;6.70;99.90
4964;DHT22;2497;47.410;9.740;2022-11-03T03:22:17;6.70;99.90
4964;DHT22;2497;47.410;9.740;2022-11-03T03:24:52;6.70;99.90
4964;DHT22;2497;47.410;9.740;2022-11-03T03:27:24;6.80;99.90
4964;DHT22;2497;47.410;9.740;2022-11-03T03:29:56;6.80;99.90
4964;DHT22;2497;47.410;9.740;2022-11-03T03:32:27;6.70;99.90
4964;DHT22;2497;47.410;9.740;2022-11-03T03:34:57;6.70;99.90
4964;DHT22;2497;47.410;9.740;2022-11-03T03:37:25;6.60;99.90
4964;DHT22;2497;47.410;9.740;2022-11-03T03:39:58;6.60;99.90
4964;DHT22;2497;47.410;9.740;2022-11-03T03:42:30;6.60;99.90
4964;DHT22;2497;47.410;9.740;2022-11-03T03:44:59;6.60;99.90
4964;DHT22;2497;47.410;9.740;2022-11-03T03:47:28;6.60;99.90
4964;DHT22;2497;47.410;9.740;2022-11-03T03:49:57;6.50;99.90
4964;DHT22;2497;47.410;9.740;2022-11-03T03:52:26;6.50;99.90
4964;DHT22;2497;47.410;9.740;2022-11-03T03:54:55;6.50;99.90
4964;DHT22;2497;47.410;9.740;2022-11-03T03:57:23;6.40;99.90
4964;DHT22;2497;47.410;9.740;2022-11-03T03:59:54;6.40;99.90
4964;DHT22;2497;47.410;9.740;2022-11-03T04:02:21;6.40;99.90
4964;DHT22;2497;47.410;9.740;2022-11-03T04:04:49;6.40;99.90
4964;DHT22;2497;47.410;9.740;2022-11-03T04:07:16;6.40;99.90
4964;DHT22;2497;47.410;9.740;2022-11-03T04:10:01;6.30;99.90
4964;DHT22;2497;47.410;9.740;2022-11-03T04:12:29;6.30;99.90
4964;DHT22;2497;47.410;9.740;2022-11-03T04:15:24;6.20;99.90
4964;DHT22;2497;47.410;9.740;2022-11-03T04:18:09;6.30;99.90
4964;DHT22;2497;47.410;9.740;2022-11-03T04:20:53;6.30;99.90
4964;DHT22;2497;47.410;9.740;2022-11-03T04:23:38;6.30;99.90
4964;DHT22;2497;47.410;9.740;2022-11-03T04:26:10;6.40;99.90
4964;DHT22;2497;47.410;9.740;2022-11-03T04:28:39;6.30;99.90
4964;DHT22;2497;47.410;9.740;2022-11-03T04:31:11;6.30;99.90
4964;DHT22;2497;47.410;9.740;2022-11-03T04:33:40;6.30;99.90
4964;DHT22;2497;47.410;9.740;2022-11-03T04:36:12;6.30;99.90
4964;DHT22;2497;47.410;9.740;2022-11-03T04:38:42;6.30;99.90
4964;DHT22;2497;47.410;9.740;2022-11-03T04:41:13;6.20;99.90
4964;DHT22;2497;47.410;9.740;2022-11-03T04:43:41;6.20;99.90
4964;DHT22;2497;47.410;9.740;2022-11-03T04:46:12;6.20;99.90
4964;DHT22;2497;47.410;9.740;2022-11-03T04:48:42;6.20;99.90
4964;DHT22;2497;47.410;9.740;2022-11-03T04:51:15;6.20;99.90
4964;DHT22;2497;47.410;9.740;2022-11-03T04:53:48;6.20;99.90
4964;DHT22;2497;47.410;9.740;2022-11-03T04:56:19;6.30;99.90
4964;DHT22;2497;47.410;9.740;2022-11-03T04:58:48;6.30;99.90
4964;DHT22;2497;47.410;9.740;2022-11-03T05:01:19;6.30;99.90
4964;DHT22;2497;47.410;9.740;2022-11-03T05:03:48;6.30;99.90
4964;DHT22;2497;47.410;9.740;2022-11-03T05:06:19;6.30;99.90
4964;DHT22;2497;47.410;9.740;2022-11-03T05:08:49;6.40;99.90
4964;DHT22;2497;47.410;9.740;2022-11-03T05:11:30;6.30;99.90
4964;DHT22;2497;47.410;9.740;2022-11-03T05:14:00;6.30;99.90
4964;DHT22;2497;47.410;9.740;2022-11-03T05:16:30;6.20;99.90
4964;DHT22;2497;47.410;9.740;2022-11-03T05:18:58;6.10;99.90
4964;DHT22;2497;47.410;9.740;2022-11-03T05:21:26;6.10;99.90
4964;DHT22;2497;47.410;9.740;2022-11-03T05:23:57;6.10;99.90
4964;DHT22;2497;47.410;9.740;2022-11-03T05:26:27;6.20;99.90
4964;DHT22;2497;47.410;9.740;2022-11-03T05:28:58;6.20;99.90
4964;DHT22;2497;47.410;9.740;2022-11-03T05:31:29;6.20;99.90
4964;DHT22;2497;47.410;9.740;2022-11-03T05:33:59;6.20;99.90
4964;DHT22;2497;47.410;9.740;2022-11-03T05:36:29;6.10;99.90
4964;DHT22;2497;47.410;9.740;2022-11-03T05:39:00;6.10;99.90
4964;DHT22;2497;47.410;9.740;2022-11-03T05:41:31;6.00;99.90
4964;DHT22;2497;47.410;9.740;2022-11-03T05:44:02;6.10;99.90
4964;DHT22;2497;47.410;9.740;2022-11-03T05:46:33;6.20;99.90
4964;DHT22;2497;47.410;9.740;2022-11-03T05:49:02;6.10;99.90
4964;DHT22;2497;47.410;9.740;2022-11-03T05:51:32;6.10;99.90
4964;DHT22;2497;47.410;9.740;2022-11-03T05:54:02;6.00;99.90
4964;DHT22;2497;47.410;9.740;2022-11-03T05:56:31;5.90;99.90
4964;DHT22;2497;47.410;9.740;2022-11-03T05:59:00;5.90;99.90
4964;DHT22;2497;47.410;9.740;2022-11-03T06:01:31;6.00;99.90
4964;DHT22;2497;47.410;9.740;2022-11-03T06:03:59;5.90;99.90
4964;DHT22;2497;47.410;9.740;2022-11-03T06:06:31;6.00;99.90
4964;DHT22;2497;47.410;9.740;2022-11-03T06:09:02;6.00;99.90
4964;DHT22;2497;47.410;9.740;2022-11-03T06:11:34;6.10;99.90
4964;DHT22;2497;47.410;9.740;2022-11-03T06:14:11;6.10;99.90
4964;DHT22;2497;47.410;9.740;2022-11-03T06:16:42;6.10;99.90
4964;DHT22;2497;47.410;9.740;2022-11-03T06:19:22;6.20;99.90
4964;DHT22;2497;47.410;9.740;2022-11-03T06:21:53;6.20;99.90
4964;DHT22;2497;47.410;9.740;2022-11-03T06:24:24;6.20;99.90
4964;DHT22;2497;47.410;9.740;2022-11-03T06:26:52;6.20;99.90
4964;DHT22;2497;47.410;9.740;2022-11-03T06:29:20;6.10;99.90
4964;DHT22;2497;47.410;9.740;2022-11-03T06:31:53;6.10;99.90
4964;DHT22;2497;47.410;9.740;2022-11-03T06:34:36;6.10;99.90
4964;DHT22;2497;47.410;9.740;2022-11-03T06:37:19;6.00;99.90
4964;DHT22;2497;47.410;9.740;2022-11-03T06:39:48;6.10;99.90
4964;DHT22;2497;47.410;9.740;2022-11-03T06:42:20;6.00;99.90
4964;DHT22;2497;47.410;9.740;2022-11-03T06:44:49;6.00;99.90
4964;DHT22;2497;47.410;9.740;2022-11-03T06:47:22;6.10;99.90
4964;DHT22;2497;47.410;9.740;2022-11-03T06:49:51;6.10;99.90
4964;DHT22;2497;47.410;9.740;2022-11-03T06:52:26;6.10;99.90
4964;DHT22;2497;47.410;9.740;2022-11-03T06:55:00;6.20;99.90
4964;DHT22;2497;47.410;9.740;2022-11-03T06:57:36;6.20;99.90
4964;DHT22;2497;47.410;9.740;2022-11-03T07:00:12;6.30;99.90
4964;DHT22;2497;47.410;9.740;2022-11-03T07:03:00;6.30;99.90
4964;DHT22;2497;47.410;9.740;2022-11-03T07:05:30;6.30;99.90
4964;DHT22;2497;47.410;9.740;2022-11-03T07:08:01;6.30;99.90
4964;DHT22;2497;47.410;9.740;2022-11-03T07:10:31;6.30;99.90
4964;DHT22;2497;47.410;9.740;2022-11-03T07:13:00;6.40;99.90
4964;DHT22;2497;47.410;9.740;2022-11-03T07:15:33;6.50;99.90
4964;DHT22;2497;47.410;9.740;2022-11-03T07:18:13;6.60;99.90
4964;DHT22;2497;47.410;9.740;2022-11-03T07:20:43;6.70;99.90
4964;DHT22;2497;47.410;9.740;2022-11-03T07:23:13;6.70;99.90
4964;DHT22;2497;47.410;9.740;2022-11-03T07:25:50;6.80;99.90
4964;DHT22;2497;47.410;9.740;2022-11-03T07:28:20;6.90;99.90
4964;DHT22;2497;47.410;9.740;2022-11-03T07:30:48;6.90;99.90
4964;DHT22;2497;47.410;9.740;2022-11-03T07:33:20;7.00;99.90
4964;DHT22;2497;47.410;9.740;2022-11-03T07:35:49;7.00;99.90
4964;DHT22;2497;47.410;9.740;2022-11-03T07:38:18;7.00;99.90
4964;DHT22;2497;47.410;9.740;2022-11-03T07:40:46;7.10;99.90
4964;DHT22;2497;47.410;9.740;2022-11-03T07:43:17;7.20;99.90
4964;DHT22;2497;47.410;9.740;2022-11-03T07:45:48;7.30;99.90
4964;DHT22;2497;47.410;9.740;2022-11-03T07:48:21;7.30;99.90
4964;DHT22;2497;47.410;9.740;2022-11-03T07:50:51;7.40;99.90
4964;DHT22;2497;47.410;9.740;2022-11-03T07:53:21;7.50;99.90
4964;DHT22;2497;47.410;9.740;2022-11-03T07:55:53;7.70;99.90
4964;DHT22;2497;47.410;9.740;2022-11-03T07:58:34;7.70;99.90
4964;DHT22;2497;47.410;9.740;2022-11-03T08:01:02;7.90;99.90
4964;DHT22;2497;47.410;9.740;2022-11-03T08:03:45;8.00;99.90
4964;DHT22;2497;47.410;9.740;2022-11-03T08:06:12;8.10;99.90
4964;DHT22;2497;47.410;9.740;2022-11-03T08:08:40;8.10;99.90
4964;DHT22;2497;47.410;9.740;2022-11-03T08:11:07;8.20;99.90
4964;DHT22;2497;47.410;9.740;2022-11-03T08:13:35;8.20;99.90
4964;DHT22;2497;47.410;9.740;2022-11-03T08:16:03;8.30;99.90
4964;DHT22;2497;47.410;9.740;2022-11-03T08:18:30;8.40;99.90
4964;DHT22;2497;47.410;9.740;2022-11-03T08:21:00;8.20;99.90
4964;DHT22;2497;47.410;9.740;2022-11-03T08:23:27;8.20;99.90
4964;DHT22;2497;47.410;9.740;2022-11-03T08:25:55;8.10;99.90
4964;DHT22;2497;47.410;9.740;2022-11-03T08:28:22;8.00;99.90
4964;DHT22;2497;47.410;9.740;2022-11-03T08:30:50;8.00;99.90
4964;DHT22;2497;47.410;9.740;2022-11-03T08:33:17;8.10;99.90
4964;DHT22;2497;47.410;9.740;2022-11-03T08:35:45;8.40;99.90
4964;DHT22;2497;47.410;9.740;2022-11-03T08:38:14;8.70;99.90
4964;DHT22;2497;47.410;9.740;2022-11-03T08:40:41;8.90;99.90
4964;DHT22;2497;47.410;9.740;2022-11-03T08:43:09;9.30;99.90
4964;DHT22;2497;47.410;9.740;2022-11-03T08:45:36;9.60;99.90
4964;DHT22;2497;47.410;9.740;2022-11-03T08:48:04;9.70;99.90
4964;DHT22;2497;47.410;9.740;2022-11-03T08:50:32;9.80;99.90
4964;DHT22;2497;47.410;9.740;2022-11-03T08:52:59;10.00;99.90
4964;DHT22;2497;47.410;9.740;2022-11-03T08:55:29;9.90;99.90
4964;DHT22;2497;47.410;9.740;2022-11-03T08:57:56;10.00;99.90
4964;DHT22;2497;47.410;9.740;2022-11-03T09:00:24;9.90;99.90
4964;DHT22;2497;47.410;9.740;2022-11-03T09:02:51;10.00;99.90
4964;DHT22;2497;47.410;9.740;2022-11-03T09:05:18;10.20;99.90
4964;DHT22;2497;47.410;9.740;2022-11-03T09:07:46;10.30;99.90
4964;DHT22;2497;47.410;9.740;2022-11-03T09:10:14;10.40;99.90
4964;DHT22;2497;47.410;9.740;2022-11-03T09:12:43;10.40;99.90
4964;DHT22;2497;47.410;9.740;2022-11-03T09:15:11;10.50;99.90
4964;DHT22;2497;47.410;9.740;2022-11-03T09:17:38;10.40;99.90
4964;DHT22;2497;47.410;9.740;2022-11-03T09:20:06;10.30;99.90
4964;DHT22;2497;47.410;9.740;2022-11-03T09:22:34;9.90;99.90
4964;DHT22;2497;47.410;9.740;2022-11-03T09:25:02;10.00;99.90
4964;DHT22;2497;47.410;9.740;2022-11-03T09:27:29;10.20;99.90
4964;DHT22;2497;47.410;9.740;2022-11-03T09:29:58;10.40;99.90
4964;DHT22;2497;47.410;9.740;2022-11-03T09:32:26;10.70;99.90
4964;DHT22;2497;47.410;9.740;2022-11-03T09:34:54;10.90;99.90
4964;DHT22;2497;47.410;9.740;2022-11-03T09:37:22;11.00;99.90
4964;DHT22;2497;47.410;9.740;2022-11-03T09:39:50;10.70;99.90
4964;DHT22;2497;47.410;9.740;2022-11-03T09:42:18;10.80;99.90
4964;DHT22;2497;47.410;9.740;2022-11-03T09:44:46;10.90;99.90
4964;DHT22;2497;47.410;9.740;2022-11-03T09:47:21;10.90;99.90
4964;DHT22;2497;47.410;9.740;2022-11-03T09:49:49;11.20;99.90
4964;DHT22;2497;47.410;9.740;2022-11-03T09:52:20;11.00;99.90
4964;DHT22;2497;47.410;9.740;2022-11-03T09:54:48;11.00;99.90
4964;DHT22;2497;47.410;9.740;2022-11-03T09:57:15;11.00;99.90
4964;DHT22;2497;47.410;9.740;2022-11-03T09:59:45;11.00;99.90
4964;DHT22;2497;47.410;9.740;2022-11-03T10:02:21;10.80;99.90
4964;DHT22;2497;47.410;9.740;2022-11-03T10:04:51;10.60;99.90
4964;DHT22;2497;47.410;9.740;2022-11-03T10:07:19;10.60;99.90
4964;DHT22;2497;47.410;9.740;2022-11-03T10:09:49;10.80;99.90
4964;DHT22;2497;47.410;9.740;2022-11-03T10:12:17;11.10;99.90
4964;DHT22;2497;47.410;9.740;2022-11-03T10:14:47;11.10;99.90
4964;DHT22;2497;47.410;9.740;2022-11-03T10:17:17;11.20;99.90
4964;DHT22;2497;47.410;9.740;2022-11-03T10:19:50;11.30;99.90
4964;DHT22;2497;47.410;9.740;2022-11-03T10:22:19;11.40;99.90
4964;DHT22;2497;47.410;9.740;2022-11-03T10:24:47;11.50;99.90
4964;DHT22;2497;47.410;9.740;2022-11-03T10:27:22;11.60;99.90
4964;DHT22;2497;47.410;9.740;2022-11-03T10:30:05;11.60;99.90
4964;DHT22;2497;47.410;9.740;2022-11-03T10:32:33;11.70;99.90
4964;DHT22;2497;47.410;9.740;2022-11-03T10:35:07;11.50;99.90
4964;DHT22;2497;47.410;9.740;2022-11-03T10:37:50;11.60;99.90
4964;DHT22;2497;47.410;9.740;2022-11-03T10:40:33;11.60;99.90
4964;DHT22;2497;47.410;9.740;2022-11-03T10:43:01;11.60;99.90
4964;DHT22;2497;47.410;9.740;2022-11-03T10:45:28;11.70;99.90
4964;DHT22;2497;47.410;9.740;2022-11-03T10:47:59;11.70;99.90
4964;DHT22;2497;47.410;9.740;2022-11-03T10:50:29;11.80;99.90
4964;DHT22;2497;47.410;9.740;2022-11-03T10:52:57;11.80;99.90
4964;DHT22;2497;47.410;9.740;2022-11-03T10:55:25;11.70;99.90
4964;DHT22;2497;47.410;9.740;2022-11-03T10:57:52;11.70;99.90
4964;DHT22;2497;47.410;9.740;2022-11-03T11:00:21;11.60;99.90
4964;DHT22;2497;47.410;9.740;2022-11-03T11:02:49;11.60;99.90
4964;DHT22;2497;47.410;9.740;2022-11-03T11:05:22;11.70;99.90
4964;DHT22;2497;47.410;9.740;2022-11-03T11:07:53;11.80;99.90
4964;DHT22;2497;47.410;9.740;2022-11-03T11:10:23;11.80;99.90
4964;DHT22;2497;47.410;9.740;2022-11-03T11:13:22;11.70;99.90
4964;DHT22;2497;47.410;9.740;2022-11-03T11:15:51;11.80;99.90
4964;DHT22;2497;47.410;9.740;2022-11-03T11:22:12;12.50;99.90
4964;DHT22;2497;47.410;9.740;2022-11-03T11:25:02;12.40;99.90
4964;DHT22;2497;47.410;9.740;2022-11-03T11:31:00;12.80;99.90
4964;DHT22;2497;47.410;9.740;2022-11-03T11:33:31;13.50;99.90
4964;DHT22;2497;47.410;9.740;2022-11-03T11:38:54;13.80;99.90
4964;DHT22;2497;47.410;9.740;2022-11-03T11:44:48;13.60;99.90
4964;DHT22;2497;47.410;9.740;2022-11-03T11:47:34;13.40;99.90
4964;DHT22;2497;47.410;9.740;2022-11-03T11:50:31;13.70;99.90
4964;DHT22;2497;47.410;9.740;2022-11-03T11:53:12;14.40;99.90
4964;DHT22;2497;47.410;9.740;2022-11-03T11:55:43;15.00;99.90
4964;DHT22;2497;47.410;9.740;2022-11-03T11:58:18;15.60;99.90
4964;DHT22;2497;47.410;9.740;2022-11-03T12:01:18;15.50;99.90
4964;DHT22;2497;47.410;9.740;2022-11-03T12:03:47;15.20;99.90
4964;DHT22;2497;47.410;9.740;2022-11-03T12:06:15;15.10;99.90
4964;DHT22;2497;47.410;9.740;2022-11-03T12:08:43;15.10;99.90
4964;DHT22;2497;47.410;9.740;2022-11-03T12:11:11;15.20;99.90
4964;DHT22;2497;47.410;9.740;2022-11-03T12:13:44;15.00;99.90
4964;DHT22;2497;47.410;9.740;2022-11-03T12:16:33;14.80;99.90
4964;DHT22;2497;47.410;9.740;2022-11-03T12:19:34;14.60;99.90
4964;DHT22;2497;47.410;9.740;2022-11-03T12:22:02;14.70;99.90
4964;DHT22;2497;47.410;9.740;2022-11-03T12:24:44;15.10;99.90
4964;DHT22;2497;47.410;9.740;2022-11-03T12:27:18;15.10;99.90
4964;DHT22;2497;47.410;9.740;2022-11-03T12:29:46;15.30;99.90
4964;DHT22;2497;47.410;9.740;2022-11-03T12:32:16;14.90;99.90
4964;DHT22;2497;47.410;9.740;2022-11-03T12:34:43;14.70;99.90
4964;DHT22;2497;47.410;9.740;2022-11-03T12:37:10;14.50;99.90
4964;DHT22;2497;47.410;9.740;2022-11-03T12:39:38;14.40;99.90
4964;DHT22;2497;47.410;9.740;2022-11-03T12:42:06;14.10;99.90
4964;DHT22;2497;47.410;9.740;2022-11-03T12:44:33;14.10;99.90
4964;DHT22;2497;47.410;9.740;2022-11-03T12:47:01;14.30;99.90
4964;DHT22;2497;47.410;9.740;2022-11-03T12:49:30;14.20;99.90
4964;DHT22;2497;47.410;9.740;2022-11-03T12:51:57;14.20;99.90
4964;DHT22;2497;47.410;9.740;2022-11-03T12:54:32;14.30;99.90
4964;DHT22;2497;47.410;9.740;2022-11-03T12:57:00;14.20;99.90
4964;DHT22;2497;47.410;9.740;2022-11-03T12:59:27;14.00;99.90
4964;DHT22;2497;47.410;9.740;2022-11-03T13:01:55;13.80;99.90
4964;DHT22;2497;47.410;9.740;2022-11-03T13:04:22;13.50;99.90
4964;DHT22;2497;47.410;9.740;2022-11-03T13:06:52;13.30;99.90
4964;DHT22;2497;47.410;9.740;2022-11-03T13:09:19;13.20;99.90
4964;DHT22;2497;47.410;9.740;2022-11-03T13:11:47;13.20;99.90
4964;DHT22;2497;47.410;9.740;2022-11-03T13:14:32;13.10;99.90
4964;DHT22;2497;47.410;9.740;2022-11-03T13:16:59;13.00;99.90
4964;DHT22;2497;47.410;9.740;2022-11-03T13:19:28;12.90;99.90
4964;DHT22;2497;47.410;9.740;2022-11-03T13:21:57;12.80;99.90
4964;DHT22;2497;47.410;9.740;2022-11-03T13:24:24;12.80;99.90
4964;DHT22;2497;47.410;9.740;2022-11-03T13:26:52;12.70;99.90
4964;DHT22;2497;47.410;9.740;2022-11-03T13:29:20;12.90;99.90
4964;DHT22;2497;47.410;9.740;2022-11-03T13:31:47;12.80;99.90
4964;DHT22;2497;47.410;9.740;2022-11-03T13:34:14;12.70;99.90
4964;DHT22;2497;47.410;9.740;2022-11-03T13:36:42;12.70;99.90
4964;DHT22;2497;47.410;9.740;2022-11-03T13:39:11;12.60;99.90
4964;DHT22;2497;47.410;9.740;2022-11-03T13:41:39;12.50;99.90
4964;DHT22;2497;47.410;9.740;2022-11-03T13:44:06;12.30;99.90
4964;DHT22;2497;47.410;9.740;2022-11-03T13:46:34;12.20;99.90
4964;DHT22;2497;47.410;9.740;2022-11-03T13:49:01;12.30;99.90
4964;DHT22;2497;47.410;9.740;2022-11-03T13:51:28;12.20;99.90
4964;DHT22;2497;47.410;9.740;2022-11-03T13:53:57;12.00;99.90
4964;DHT22;2497;47.410;9.740;2022-11-03T13:56:25;12.00;99.90
4964;DHT22;2497;47.410;9.740;2022-11-03T13:58:53;11.90;99.90
4964;DHT22;2497;47.410;9.740;2022-11-03T14:01:20;11.90;99.90
4964;DHT22;2497;47.410;9.740;2022-11-03T14:03:48;11.70;99.90
4964;DHT22;2497;47.410;9.740;2022-11-03T14:06:16;11.70;99.90
4964;DHT22;2497;47.410;9.740;2022-11-03T14:08:43;11.60;99.90
4964;DHT22;2497;47.410;9.740;2022-11-03T14:11:11;11.40;99.90
4964;DHT22;2497;47.410;9.740;2022-11-03T14:13:57;11.30;99.90
4964;DHT22;2497;47.410;9.740;2022-11-03T14:16:24;11.30;99.90
4964;DHT22;2497;47.410;9.740;2022-11-03T14:18:52;11.30;99.90
4964;DHT22;2497;47.410;9.740;2022-11-03T14:21:19;11.20;99.90
4964;DHT22;2497;47.410;9.740;2022-11-03T14:23:47;11.20;99.90
4964;DHT22;2497;47.410;9.740;2022-11-03T14:26:14;11.20;99.90
4964;DHT22;2497;47.410;9.740;2022-11-03T14:28:42;11.20;99.90
4964;DHT22;2497;47.410;9.740;2022-11-03T14:31:12;11.20;99.90
4964;DHT22;2497;47.410;9.740;2022-11-03T14:33:39;11.40;99.90
4964;DHT22;2497;47.410;9.740;2022-11-03T14:36:06;11.40;99.90
4964;DHT22;2497;47.410;9.740;2022-11-03T14:38:34;11.40;99.90
4964;DHT22;2497;47.410;9.740;2022-11-03T14:41:01;11.40;99.90
4964;DHT22;2497;47.410;9.740;2022-11-03T14:43:43;11.30;99.90
4964;DHT22;2497;47.410;9.740;2022-11-03T14:46:12;11.30;99.90
4964;DHT22;2497;47.410;9.740;2022-11-03T14:48:40;11.20;99.90
4964;DHT22;2497;47.410;9.740;2022-11-03T14:51:07;11.10;99.90
4964;DHT22;2497;47.410;9.740;2022-11-03T14:53:34;11.20;99.90
4964;DHT22;2497;47.410;9.740;2022-11-03T14:56:02;11.20;99.90
4964;DHT22;2497;47.410;9.740;2022-11-03T14:58:29;11.20;99.90
4964;DHT22;2497;47.410;9.740;2022-11-03T15:00:57;11.20;99.90
4964;DHT22;2497;47.410;9.740;2022-11-03T15:03:26;11.20;99.90
4964;DHT22;2497;47.410;9.740;2022-11-03T15:05:53;11.20;99.90
4964;DHT22;2497;47.410;9.740;2022-11-03T15:08:21;11.20;99.90
4964;DHT22;2497;47.410;9.740;2022-11-03T15:10:49;11.20;99.90
4964;DHT22;2497;47.410;9.740;2022-11-03T15:13:17;11.20;99.90
4964;DHT22;2497;47.410;9.740;2022-11-03T15:15:44;11.20;99.90
4964;DHT22;2497;47.410;9.740;2022-11-03T15:18:12;11.20;99.90
4964;DHT22;2497;47.410;9.740;2022-11-03T15:20:41;11.20;99.90
4964;DHT22;2497;47.410;9.740;2022-11-03T15:23:10;11.30;99.90
4964;DHT22;2497;47.410;9.740;2022-11-03T15:25:41;11.30;99.90
4964;DHT22;2497;47.410;9.740;2022-11-03T15:28:08;11.30;99.90
4964;DHT22;2497;47.410;9.740;2022-11-03T15:30:36;11.30;99.90
4964;DHT22;2497;47.410;9.740;2022-11-03T15:33:03;11.40;99.90
4964;DHT22;2497;47.410;9.740;2022-11-03T15:35:31;11.50;99.90
4964;DHT22;2497;47.410;9.740;2022-11-03T15:38:00;11.50;99.90
4964;DHT22;2497;47.410;9.740;2022-11-03T15:40:28;11.50;99.90
4964;DHT22;2497;47.410;9.740;2022-11-03T15:42:55;11.40;99.90
4964;DHT22;2497;47.410;9.740;2022-11-03T15:45:22;11.40;99.90
4964;DHT22;2497;47.410;9.740;2022-11-03T15:47:50;11.40;99.90
4964;DHT22;2497;47.410;9.740;2022-11-03T15:50:17;11.30;99.90
4964;DHT22;2497;47.410;9.740;2022-11-03T15:52:45;11.40;99.90
4964;DHT22;2497;47.410;9.740;2022-11-03T15:55:15;11.30;99.90
4964;DHT22;2497;47.410;9.740;2022-11-03T15:57:42;11.30;99.90
4964;DHT22;2497;47.410;9.740;2022-11-03T16:00:11;11.30;99.90
4964;DHT22;2497;47.410;9.740;2022-11-03T16:02:39;11.20;99.90
4964;DHT22;2497;47.410;9.740;2022-11-03T16:05:08;11.20;99.90
4964;DHT22;2497;47.410;9.740;2022-11-03T16:07:35;11.20;99.90
4964;DHT22;2497;47.410;9.740;2022-11-03T16:10:03;11.20;99.90
4964;DHT22;2497;47.410;9.740;2022-11-03T16:12:33;11.10;99.90
4964;DHT22;2497;47.410;9.740;2022-11-03T16:15:02;11.10;99.90
4964;DHT22;2497;47.410;9.740;2022-11-03T16:17:30;11.10;99.90
4964;DHT22;2497;47.410;9.740;2022-11-03T16:19:58;11.10;99.90
4964;DHT22;2497;47.410;9.740;2022-11-03T16:22:25;11.00;99.90
4964;DHT22;2497;47.410;9.740;2022-11-03T16:24:53;10.90;99.90
4964;DHT22;2497;47.410;9.740;2022-11-03T16:27:21;10.80;99.90
4964;DHT22;2497;47.410;9.740;2022-11-03T16:29:50;10.80;99.90
4964;DHT22;2497;47.410;9.740;2022-11-03T16:32:20;10.80;99.90
4964;DHT22;2497;47.410;9.740;2022-11-03T16:34:47;10.70;99.90
4964;DHT22;2497;47.410;9.740;2022-11-03T16:37:15;10.70;99.90
4964;DHT22;2497;47.410;9.740;2022-11-03T16:39:43;10.80;99.90
4964;DHT22;2497;47.410;9.740;2022-11-03T16:42:10;10.80;99.90
4964;DHT22;2497;47.410;9.740;2022-11-03T16:44:38;10.70;99.90